sensor_id;sensor_type;location;lat;lon;timestamp;temperature;humidity
5128;DHT22;2582;48.770;9.190;2023-05-10T00:01:33;16.60;99.90
5128;DHT22;2582;48.770;9.190;2023-05-10T00:03:59;16.50;99.90
5128;DHT22;2582;48.770;9.190;2023-05-10T00:06:25;16.40;99.90
5128;DHT22;2582;48.770;9.190;2023-05-10T00:08:50;16.20;99.90
5128;DHT22;2582;48.770;9.190;2023-05-10T00:11:16;16.20;99.90
5128;DHT22;2582;48.770;9.190;2023-05-10T00:13:41;16.10;99.90
5128;DHT22;2582;48.770;9.190;2023-05-10T00:16:07;15.90;99.90
5128;DHT22;2582;48.770;9.190;2023-05-10T00:18:32;15.80;99.90
5128;DHT22;2582;48.770;9.190;2023-05-10T00:20:58;16.00;99.90
5128;DHT22;2582;48.770;9.190;2023-05-10T00:23:24;16.00;99.90
5128;DHT22;2582;48.770;9.190;2023-05-10T00:25:49;15.80;99.90
5128;DHT22;2582;48.770;9.190;2023-05-10T00:28:15;15.80;99.90
5128;DHT22;2582;48.770;9.190;2023-05-10T00:30:40;15.70;99.90
5128;DHT22;2582;48.770;9.190;2023-05-10T00:33:06;15.80;99.90
5128;DHT22;2582;48.770;9.190;2023-05-10T00:35:32;15.80;99.90
5128;DHT22;2582;48.770;9.190;2023-05-10T00:37:57;16.00;99.90
5128;DHT22;2582;48.770;9.190;2023-05-10T00:40:23;16.00;99.90
5128;DHT22;2582;48.770;9.190;2023-05-10T00:42:48;15.90;99.90
5128;DHT22;2582;48.770;9.190;2023-05-10T00:45:14;15.90;99.90
5128;DHT22;2582;48.770;9.190;2023-05-10T00:47:40;15.90;99.90
5128;DHT22;2582;48.770;9.190;2023-05-10T00:50:06;15.90;99.90
5128;DHT22;2582;48.770;9.190;2023-05-10T00:52:32;15.90;99.90
5128;DHT22;2582;48.770;9.190;2023-05-10T00:54:57;15.80;99.90
5128;DHT22;2582;48.770;9.190;2023-05-10T00:57:24;15.70;99.90
5128;DHT22;2582;48.770;9.190;2023-05-10T00:59:50;15.70;99.90
5128;DHT22;2582;48.770;9.190;2023-05-10T01:02:15;15.80;99.90
5128;DHT22;2582;48.770;9.190;2023-05-10T01:04:41;15.80;99.90
5128;DHT22;2582;48.770;9.190;2023-05-10T01:07:08;15.70;99.90
5128;DHT22;2582;48.770;9.190;2023-05-10T01:09:33;15.70;99.90
5128;DHT22;2582;48.770;9.190;2023-05-10T01:12:00;15.40;99.90
5128;DHT22;2582;48.770;9.190;2023-05-10T01:14:27;15.20;99.90
5128;DHT22;2582;48.770;9.190;2023-05-10T01:16:53;15.10;99.90
5128;DHT22;2582;48.770;9.190;2023-05-10T01:19:22;15.10;99.90
5128;DHT22;2582;48.770;9.190;2023-05-10T01:32:57;15.20;99.90
5128;DHT22;2582;48.770;9.190;2023-05-10T01:35:38;15.20;99.90
5128;DHT22;2582;48.770;9.190;2023-05-10T01:43:28;15.40;99.90
5128;DHT22;2582;48.770;9.190;2023-05-10T01:46:03;15.40;99.90
5128;DHT22;2582;48.770;9.190;2023-05-10T01:48:50;15.40;99.90
5128;DHT22;2582;48.770;9.190;2023-05-10T01:51:21;15.40;99.90
5128;DHT22;2582;48.770;9.190;2023-05-10T01:53:48;15.20;99.90
5128;DHT22;2582;48.770;9.190;2023-05-10T01:56:15;15.20;99.90
5128;DHT22;2582;48.770;9.190;2023-05-10T01:58:43;15.20;99.90
5128;DHT22;2582;48.770;9.190;2023-05-10T02:01:11;15.10;99.90
5128;DHT22;2582;48.770;9.190;2023-05-10T02:03:38;15.10;99.90
5128;DHT22;2582;48.770;9.190;2023-05-10T02:06:05;15.20;99.90
5128;DHT22;2582;48.770;9.190;2023-05-10T02:08:34;15.10;99.90
5128;DHT22;2582;48.770;9.190;2023-05-10T02:11:01;15.40;99.90
5128;DHT22;2582;48.770;9.190;2023-05-10T02:13:28;15.20;99.90
5128;DHT22;2582;48.770;9.190;2023-05-10T02:15:55;15.30;99.90
5128;DHT22;2582;48.770;9.190;2023-05-10T02:18:23;15.30;99.90
5128;DHT22;2582;48.770;9.190;2023-05-10T02:20:52;15.50;99.90
5128;DHT22;2582;48.770;9.190;2023-05-10T02:23:20;15.60;99.90
5128;DHT22;2582;48.770;9.190;2023-05-10T02:25:48;15.60;99.90
5128;DHT22;2582;48.770;9.190;2023-05-10T02:28:14;15.60;99.90
5128;DHT22;2582;48.770;9.190;2023-05-10T02:30:41;15.70;99.90
5128;DHT22;2582;48.770;9.190;2023-05-10T02:33:07;15.70;99.90
5128;DHT22;2582;48.770;9.190;2023-05-10T02:35:34;15.50;99.90
5128;DHT22;2582;48.770;9.190;2023-05-10T02:38:01;15.40;99.90
5128;DHT22;2582;48.770;9.190;2023-05-10T02:40:27;15.50;99.90
5128;DHT22;2582;48.770;9.190;2023-05-10T02:42:55;15.50;99.90
5128;DHT22;2582;48.770;9.190;2023-05-10T02:45:24;15.60;99.90
5128;DHT22;2582;48.770;9.190;2023-05-10T02:47:51;15.60;99.90
5128;DHT22;2582;48.770;9.190;2023-05-10T02:50:18;15.60;99.90
5128;DHT22;2582;48.770;9.190;2023-05-10T02:52:47;15.70;99.90
5128;DHT22;2582;48.770;9.190;2023-05-10T02:55:15;15.70;99.90
5128;DHT22;2582;48.770;9.190;2023-05-10T02:57:48;15.70;99.90
5128;DHT22;2582;48.770;9.190;2023-05-10T03:00:16;15.70;99.90
5128;DHT22;2582;48.770;9.190;2023-05-10T03:02:42;15.60;99.90
5128;DHT22;2582;48.770;9.190;2023-05-10T03:05:07;15.60;99.90
5128;DHT22;2582;48.770;9.190;2023-05-10T03:07:33;15.50;99.90
5128;DHT22;2582;48.770;9.190;2023-05-10T03:09:59;15.50;99.90
5128;DHT22;2582;48.770;9.190;2023-05-10T03:20:22;15.60;99.90
5128;DHT22;2582;48.770;9.190;2023-05-10T03:22:59;15.60;99.90
5128;DHT22;2582;48.770;9.190;2023-05-10T03:25:26;15.60;99.90
5128;DHT22;2582;48.770;9.190;2023-05-10T03:27:54;15.70;99.90
5128;DHT22;2582;48.770;9.190;2023-05-10T03:30:19;15.80;99.90
5128;DHT22;2582;48.770;9.190;2023-05-10T03:32:45;15.80;99.90
5128;DHT22;2582;48.770;9.190;2023-05-10T03:35:12;15.70;99.90
5128;DHT22;2582;48.770;9.190;2023-05-10T03:37:38;15.70;99.90
5128;DHT22;2582;48.770;9.190;2023-05-10T03:40:04;15.70;99.90
5128;DHT22;2582;48.770;9.190;2023-05-10T03:42:30;15.70;99.90
5128;DHT22;2582;48.770;9.190;2023-05-10T03:44:56;15.50;99.90
5128;DHT22;2582;48.770;9.190;2023-05-10T03:47:22;15.50;99.90
5128;DHT22;2582;48.770;9.190;2023-05-10T03:49:47;15.60;99.90
5128;DHT22;2582;48.770;9.190;2023-05-10T03:52:13;15.60;99.90
5128;DHT22;2582;48.770;9.190;2023-05-10T03:54:39;15.50;99.90
5128;DHT22;2582;48.770;9.190;2023-05-10T03:57:04;15.50;99.90
5128;DHT22;2582;48.770;9.190;2023-05-10T03:59:30;15.60;99.90
5128;DHT22;2582;48.770;9.190;2023-05-10T04:01:56;15.60;99.90
5128;DHT22;2582;48.770;9.190;2023-05-10T04:04:22;15.50;99.90
5128;DHT22;2582;48.770;9.190;2023-05-10T04:06:48;15.60;99.90
5128;DHT22;2582;48.770;9.190;2023-05-10T04:09:14;15.60;99.90
5128;DHT22;2582;48.770;9.190;2023-05-10T04:11:39;15.50;99.90
5128;DHT22;2582;48.770;9.190;2023-05-10T04:14:05;15.40;99.90
5128;DHT22;2582;48.770;9.190;2023-05-10T04:16:30;15.30;99.90
5128;DHT22;2582;48.770;9.190;2023-05-10T04:18:56;15.20;99.90
5128;DHT22;2582;48.770;9.190;2023-05-10T04:21:21;15.20;99.90
5128;DHT22;2582;48.770;9.190;2023-05-10T04:23:47;15.00;99.90
5128;DHT22;2582;48.770;9.190;2023-05-10T04:26:13;15.20;99.90
5128;DHT22;2582;48.770;9.190;2023-05-10T04:28:39;15.30;99.90
5128;DHT22;2582;48.770;9.190;2023-05-10T04:31:06;15.20;99.90
5128;DHT22;2582;48.770;9.190;2023-05-10T04:33:32;15.40;99.90
5128;DHT22;2582;48.770;9.190;2023-05-10T04:35:58;15.50;99.90
5128;DHT22;2582;48.770;9.190;2023-05-10T04:38:24;15.50;99.90
5128;DHT22;2582;48.770;9.190;2023-05-10T04:40:49;15.50;99.90
5128;DHT22;2582;48.770;9.190;2023-05-10T04:43:15;15.60;99.90
5128;DHT22;2582;48.770;9.190;2023-05-10T04:45:40;15.40;99.90
5128;DHT22;2582;48.770;9.190;2023-05-10T04:48:06;15.50;99.90
5128;DHT22;2582;48.770;9.190;2023-05-10T04:50:32;15.60;99.90
5128;DHT22;2582;48.770;9.190;2023-05-10T04:52:58;15.70;99.90
5128;DHT22;2582;48.770;9.190;2023-05-10T04:55:24;15.80;99.90
5128;DHT22;2582;48.770;9.190;2023-05-10T04:57:49;15.70;99.90
5128;DHT22;2582;48.770;9.190;2023-05-10T05:00:15;15.80;99.90
5128;DHT22;2582;48.770;9.190;2023-05-10T05:02:45;15.70;99.90
5128;DHT22;2582;48.770;9.190;2023-05-10T05:05:11;15.60;99.90
5128;DHT22;2582;48.770;9.190;2023-05-10T05:07:37;15.60;99.90
5128;DHT22;2582;48.770;9.190;2023-05-10T05:10:07;15.60;99.90
5128;DHT22;2582;48.770;9.190;2023-05-10T05:12:33;15.70;99.90
5128;DHT22;2582;48.770;9.190;2023-05-10T05:14:58;15.80;99.90
5128;DHT22;2582;48.770;9.190;2023-05-10T05:17:24;16.00;99.90
5128;DHT22;2582;48.770;9.190;2023-05-10T05:19:49;16.20;99.90
5128;DHT22;2582;48.770;9.190;2023-05-10T05:22:15;16.30;99.90
5128;DHT22;2582;48.770;9.190;2023-05-10T05:24:41;16.40;99.90
5128;DHT22;2582;48.770;9.190;2023-05-10T05:27:07;16.50;99.90
5128;DHT22;2582;48.770;9.190;2023-05-10T05:29:33;16.50;99.90
5128;DHT22;2582;48.770;9.190;2023-05-10T05:31:59;16.40;99.90
5128;DHT22;2582;48.770;9.190;2023-05-10T05:34:24;16.40;99.90
5128;DHT22;2582;48.770;9.190;2023-05-10T05:36:50;16.30;99.90
5128;DHT22;2582;48.770;9.190;2023-05-10T05:39:16;16.40;99.90
5128;DHT22;2582;48.770;9.190;2023-05-10T05:41:42;16.40;99.90
5128;DHT22;2582;48.770;9.190;2023-05-10T05:44:07;16.50;99.90
5128;DHT22;2582;48.770;9.190;2023-05-10T05:46:33;16.20;99.90
5128;DHT22;2582;48.770;9.190;2023-05-10T05:48:59;16.40;99.90
5128;DHT22;2582;48.770;9.190;2023-05-10T05:51:24;16.60;99.90
5128;DHT22;2582;48.770;9.190;2023-05-10T05:53:50;16.70;99.90
5128;DHT22;2582;48.770;9.190;2023-05-10T05:56:16;16.50;99.90
5128;DHT22;2582;48.770;9.190;2023-05-10T05:58:42;16.50;99.90
5128;DHT22;2582;48.770;9.190;2023-05-10T06:01:08;16.60;99.90
5128;DHT22;2582;48.770;9.190;2023-05-10T06:03:34;16.60;99.90
5128;DHT22;2582;48.770;9.190;2023-05-10T06:05:59;16.70;99.90
5128;DHT22;2582;48.770;9.190;2023-05-10T06:08:25;16.70;99.90
5128;DHT22;2582;48.770;9.190;2023-05-10T06:10:51;16.80;99.90
5128;DHT22;2582;48.770;9.190;2023-05-10T06:13:16;17.00;99.90
5128;DHT22;2582;48.770;9.190;2023-05-10T06:15:42;17.00;99.90
5128;DHT22;2582;48.770;9.190;2023-05-10T06:18:07;17.10;99.90
5128;DHT22;2582;48.770;9.190;2023-05-10T06:20:33;17.20;99.90
5128;DHT22;2582;48.770;9.190;2023-05-10T06:22:59;17.30;99.90
5128;DHT22;2582;48.770;9.190;2023-05-10T06:25:24;17.30;99.90
5128;DHT22;2582;48.770;9.190;2023-05-10T06:27:50;17.20;99.90
5128;DHT22;2582;48.770;9.190;2023-05-10T06:30:16;17.00;99.90
5128;DHT22;2582;48.770;9.190;2023-05-10T06:32:41;16.70;99.90
5128;DHT22;2582;48.770;9.190;2023-05-10T06:35:09;16.70;99.90
5128;DHT22;2582;48.770;9.190;2023-05-10T06:37:34;16.70;99.90
5128;DHT22;2582;48.770;9.190;2023-05-10T06:40:00;16.70;99.90
5128;DHT22;2582;48.770;9.190;2023-05-10T06:42:26;16.70;99.90
5128;DHT22;2582;48.770;9.190;2023-05-10T06:44:52;16.60;99.90
5128;DHT22;2582;48.770;9.190;2023-05-10T06:47:18;16.30;99.90
5128;DHT22;2582;48.770;9.190;2023-05-10T06:49:43;16.50;99.90
5128;DHT22;2582;48.770;9.190;2023-05-10T06:52:09;16.20;99.90
5128;DHT22;2582;48.770;9.190;2023-05-10T06:54:35;16.20;99.90
5128;DHT22;2582;48.770;9.190;2023-05-10T06:57:00;16.30;99.90
5128;DHT22;2582;48.770;9.190;2023-05-10T06:59:28;16.50;99.90
5128;DHT22;2582;48.770;9.190;2023-05-10T07:01:53;16.50;99.90
5128;DHT22;2582;48.770;9.190;2023-05-10T07:04:19;16.70;99.90
5128;DHT22;2582;48.770;9.190;2023-05-10T07:06:44;16.70;99.90
5128;DHT22;2582;48.770;9.190;2023-05-10T07:09:11;16.70;99.90
5128;DHT22;2582;48.770;9.190;2023-05-10T07:11:37;16.60;99.90
5128;DHT22;2582;48.770;9.190;2023-05-10T07:14:02;17.00;99.90
5128;DHT22;2582;48.770;9.190;2023-05-10T07:16:28;17.10;99.90
5128;DHT22;2582;48.770;9.190;2023-05-10T07:18:54;17.20;99.90
5128;DHT22;2582;48.770;9.190;2023-05-10T07:21:19;17.30;99.90
5128;DHT22;2582;48.770;9.190;2023-05-10T07:23:45;17.60;99.90
5128;DHT22;2582;48.770;9.190;2023-05-10T07:26:10;17.50;99.90
5128;DHT22;2582;48.770;9.190;2023-05-10T07:28:36;17.50;99.90
5128;DHT22;2582;48.770;9.190;2023-05-10T07:31:04;17.80;99.90
5128;DHT22;2582;48.770;9.190;2023-05-10T07:33:30;17.70;99.90
5128;DHT22;2582;48.770;9.190;2023-05-10T07:35:55;17.90;99.90
5128;DHT22;2582;48.770;9.190;2023-05-10T07:38:21;17.70;99.90
5128;DHT22;2582;48.770;9.190;2023-05-10T07:40:46;17.90;99.90
5128;DHT22;2582;48.770;9.190;2023-05-10T07:43:12;18.20;99.90
5128;DHT22;2582;48.770;9.190;2023-05-10T07:45:37;18.40;99.90
5128;DHT22;2582;48.770;9.190;2023-05-10T07:48:03;18.30;99.90
5128;DHT22;2582;48.770;9.190;2023-05-10T07:50:28;18.20;99.90
5128;DHT22;2582;48.770;9.190;2023-05-10T07:52:54;18.00;99.90
5128;DHT22;2582;48.770;9.190;2023-05-10T07:55:20;18.10;99.90
5128;DHT22;2582;48.770;9.190;2023-05-10T07:57:46;18.20;99.90
5128;DHT22;2582;48.770;9.190;2023-05-10T08:00:13;18.10;99.90
5128;DHT22;2582;48.770;9.190;2023-05-10T08:02:42;17.70;99.90
5128;DHT22;2582;48.770;9.190;2023-05-10T08:05:07;17.30;99.90
5128;DHT22;2582;48.770;9.190;2023-05-10T08:07:33;17.50;99.90
5128;DHT22;2582;48.770;9.190;2023-05-10T08:09:59;17.20;99.90
5128;DHT22;2582;48.770;9.190;2023-05-10T08:12:24;17.10;99.90
5128;DHT22;2582;48.770;9.190;2023-05-10T08:14:50;17.20;99.90
5128;DHT22;2582;48.770;9.190;2023-05-10T08:17:16;17.40;99.90
5128;DHT22;2582;48.770;9.190;2023-05-10T08:19:41;17.50;99.90
5128;DHT22;2582;48.770;9.190;2023-05-10T08:22:07;17.30;99.90
5128;DHT22;2582;48.770;9.190;2023-05-10T08:24:32;17.70;99.90
5128;DHT22;2582;48.770;9.190;2023-05-10T08:27:00;17.70;99.90
5128;DHT22;2582;48.770;9.190;2023-05-10T08:29:26;17.80;99.90
5128;DHT22;2582;48.770;9.190;2023-05-10T08:31:51;18.30;99.90
5128;DHT22;2582;48.770;9.190;2023-05-10T08:34:17;18.20;99.90
5128;DHT22;2582;48.770;9.190;2023-05-10T08:36:42;18.30;99.90
5128;DHT22;2582;48.770;9.190;2023-05-10T08:39:08;18.30;99.90
5128;DHT22;2582;48.770;9.190;2023-05-10T08:41:35;18.10;99.90
5128;DHT22;2582;48.770;9.190;2023-05-10T08:44:04;17.90;99.90
5128;DHT22;2582;48.770;9.190;2023-05-10T08:46:30;17.50;99.90
5128;DHT22;2582;48.770;9.190;2023-05-10T08:49:02;17.80;99.90
5128;DHT22;2582;48.770;9.190;2023-05-10T08:51:33;17.60;99.90
5128;DHT22;2582;48.770;9.190;2023-05-10T08:54:00;17.60;99.90
5128;DHT22;2582;48.770;9.190;2023-05-10T08:56:26;17.30;99.90
5128;DHT22;2582;48.770;9.190;2023-05-10T08:58:52;17.40;99.90
5128;DHT22;2582;48.770;9.190;2023-05-10T09:01:18;17.60;99.90
5128;DHT22;2582;48.770;9.190;2023-05-10T09:03:46;17.70;99.90
5128;DHT22;2582;48.770;9.190;2023-05-10T09:06:13;17.90;99.90
5128;DHT22;2582;48.770;9.190;2023-05-10T09:08:41;18.10;99.90
5128;DHT22;2582;48.770;9.190;2023-05-10T09:11:08;18.20;99.90
5128;DHT22;2582;48.770;9.190;2023-05-10T09:13:36;18.20;99.90
5128;DHT22;2582;48.770;9.190;2023-05-10T09:16:02;18.40;99.90
5128;DHT22;2582;48.770;9.190;2023-05-10T09:18:28;18.60;99.90
5128;DHT22;2582;48.770;9.190;2023-05-10T09:20:54;18.20;99.90
5128;DHT22;2582;48.770;9.190;2023-05-10T09:23:20;18.20;99.90
5128;DHT22;2582;48.770;9.190;2023-05-10T09:25:46;18.00;99.90
5128;DHT22;2582;48.770;9.190;2023-05-10T09:28:11;17.80;99.90
5128;DHT22;2582;48.770;9.190;2023-05-10T09:30:37;17.70;99.90
5128;DHT22;2582;48.770;9.190;2023-05-10T09:33:03;17.60;99.90
5128;DHT22;2582;48.770;9.190;2023-05-10T09:35:30;17.70;99.90
5128;DHT22;2582;48.770;9.190;2023-05-10T09:38:00;17.60;99.90
5128;DHT22;2582;48.770;9.190;2023-05-10T09:40:27;17.60;99.90
5128;DHT22;2582;48.770;9.190;2023-05-10T09:43:13;17.60;99.90
5128;DHT22;2582;48.770;9.190;2023-05-10T09:45:41;17.90;99.90
5128;DHT22;2582;48.770;9.190;2023-05-10T09:48:06;18.40;99.90
5128;DHT22;2582;48.770;9.190;2023-05-10T09:50:32;18.60;99.90
5128;DHT22;2582;48.770;9.190;2023-05-10T09:53:00;18.60;99.90
5128;DHT22;2582;48.770;9.190;2023-05-10T09:58:01;19.00;99.90
5128;DHT22;2582;48.770;9.190;2023-05-10T10:00:28;19.50;99.90
5128;DHT22;2582;48.770;9.190;2023-05-10T10:02:59;19.90;99.90
5128;DHT22;2582;48.770;9.190;2023-05-10T10:05:32;19.90;99.90
5128;DHT22;2582;48.770;9.190;2023-05-10T10:07:59;19.70;99.90
5128;DHT22;2582;48.770;9.190;2023-05-10T10:10:26;19.50;99.90
5128;DHT22;2582;48.770;9.190;2023-05-10T10:12:52;19.30;99.90
5128;DHT22;2582;48.770;9.190;2023-05-10T10:15:19;19.50;99.90
5128;DHT22;2582;48.770;9.190;2023-05-10T10:17:45;19.30;99.90
5128;DHT22;2582;48.770;9.190;2023-05-10T10:20:12;18.90;99.90
5128;DHT22;2582;48.770;9.190;2023-05-10T10:22:38;18.70;99.90
5128;DHT22;2582;48.770;9.190;2023-05-10T10:25:08;18.50;99.90
5128;DHT22;2582;48.770;9.190;2023-05-10T10:30:45;18.50;99.90
5128;DHT22;2582;48.770;9.190;2023-05-10T10:33:54;18.40;99.90
5128;DHT22;2582;48.770;9.190;2023-05-10T10:36:21;18.60;99.90
5128;DHT22;2582;48.770;9.190;2023-05-10T10:41:34;18.60;99.90
5128;DHT22;2582;48.770;9.190;2023-05-10T10:49:32;19.30;99.90
5128;DHT22;2582;48.770;9.190;2023-05-10T10:54:41;18.40;99.90
5128;DHT22;2582;48.770;9.190;2023-05-10T10:57:13;18.00;99.90
5128;DHT22;2582;48.770;9.190;2023-05-10T10:59:42;17.60;99.90
5128;DHT22;2582;48.770;9.190;2023-05-10T11:02:09;17.60;99.90
5128;DHT22;2582;48.770;9.190;2023-05-10T11:04:42;17.40;99.90
5128;DHT22;2582;48.770;9.190;2023-05-10T11:07:20;17.10;99.90
5128;DHT22;2582;48.770;9.190;2023-05-10T11:09:47;16.80;99.90
5128;DHT22;2582;48.770;9.190;2023-05-10T11:12:14;16.70;99.90
5128;DHT22;2582;48.770;9.190;2023-05-10T11:14:40;16.80;99.90
5128;DHT22;2582;48.770;9.190;2023-05-10T11:17:27;16.70;99.90
5128;DHT22;2582;48.770;9.190;2023-05-10T11:20:09;16.60;99.90
5128;DHT22;2582;48.770;9.190;2023-05-10T11:22:54;16.60;99.90
5128;DHT22;2582;48.770;9.190;2023-05-10T11:25:25;16.90;99.90
5128;DHT22;2582;48.770;9.190;2023-05-10T11:27:51;17.10;99.90
5128;DHT22;2582;48.770;9.190;2023-05-10T11:30:17;17.00;99.90
5128;DHT22;2582;48.770;9.190;2023-05-10T11:32:43;17.20;99.90
5128;DHT22;2582;48.770;9.190;2023-05-10T11:35:10;17.60;99.90
5128;DHT22;2582;48.770;9.190;2023-05-10T11:37:37;17.70;99.90
5128;DHT22;2582;48.770;9.190;2023-05-10T11:40:07;17.70;99.90
5128;DHT22;2582;48.770;9.190;2023-05-10T11:42:37;17.80;99.90
5128;DHT22;2582;48.770;9.190;2023-05-10T11:45:02;17.90;99.90
5128;DHT22;2582;48.770;9.190;2023-05-10T11:47:28;17.80;99.90
5128;DHT22;2582;48.770;9.190;2023-05-10T11:49:54;17.50;99.90
5128;DHT22;2582;48.770;9.190;2023-05-10T11:52:19;17.20;99.90
5128;DHT22;2582;48.770;9.190;2023-05-10T11:54:51;17.10;99.90
5128;DHT22;2582;48.770;9.190;2023-05-10T11:57:18;17.00;99.90
5128;DHT22;2582;48.770;9.190;2023-05-10T11:59:45;17.20;99.90
5128;DHT22;2582;48.770;9.190;2023-05-10T12:02:12;17.20;99.90
5128;DHT22;2582;48.770;9.190;2023-05-10T12:04:38;17.40;99.90
5128;DHT22;2582;48.770;9.190;2023-05-10T12:07:03;17.60;99.90
5128;DHT22;2582;48.770;9.190;2023-05-10T12:09:29;17.40;99.90
5128;DHT22;2582;48.770;9.190;2023-05-10T12:11:56;17.60;99.90
5128;DHT22;2582;48.770;9.190;2023-05-10T12:14:24;17.60;99.90
5128;DHT22;2582;48.770;9.190;2023-05-10T12:16:50;17.90;99.90
5128;DHT22;2582;48.770;9.190;2023-05-10T12:19:19;17.90;99.90
5128;DHT22;2582;48.770;9.190;2023-05-10T12:21:48;18.00;99.90
5128;DHT22;2582;48.770;9.190;2023-05-10T12:24:13;18.30;99.90
5128;DHT22;2582;48.770;9.190;2023-05-10T12:26:43;18.20;99.90
5128;DHT22;2582;48.770;9.190;2023-05-10T12:29:13;18.30;99.90
5128;DHT22;2582;48.770;9.190;2023-05-10T12:31:56;18.10;99.90
5128;DHT22;2582;48.770;9.190;2023-05-10T12:34:33;18.20;99.90
5128;DHT22;2582;48.770;9.190;2023-05-10T12:36:58;18.30;99.90
5128;DHT22;2582;48.770;9.190;2023-05-10T12:39:25;18.20;99.90
5128;DHT22;2582;48.770;9.190;2023-05-10T12:41:51;18.10;99.90
5128;DHT22;2582;48.770;9.190;2023-05-10T12:44:17;18.30;99.90
5128;DHT22;2582;48.770;9.190;2023-05-10T12:46:43;18.30;99.90
5128;DHT22;2582;48.770;9.190;2023-05-10T12:49:08;18.30;99.90
5128;DHT22;2582;48.770;9.190;2023-05-10T12:51:34;18.30;99.90
5128;DHT22;2582;48.770;9.190;2023-05-10T12:53:59;18.20;99.90
5128;DHT22;2582;48.770;9.190;2023-05-10T12:56:25;18.30;99.90
5128;DHT22;2582;48.770;9.190;2023-05-10T12:58:51;18.10;99.90
5128;DHT22;2582;48.770;9.190;2023-05-10T13:01:16;18.20;99.90
5128;DHT22;2582;48.770;9.190;2023-05-10T13:03:42;18.00;99.90
5128;DHT22;2582;48.770;9.190;2023-05-10T13:06:11;17.80;99.90
5128;DHT22;2582;48.770;9.190;2023-05-10T13:08:38;17.80;99.90
5128;DHT22;2582;48.770;9.190;2023-05-10T13:11:05;17.80;99.90
5128;DHT22;2582;48.770;9.190;2023-05-10T13:13:31;17.90;99.90
5128;DHT22;2582;48.770;9.190;2023-05-10T13:15:57;17.70;99.90
5128;DHT22;2582;48.770;9.190;2023-05-10T13:18:22;17.80;99.90
5128;DHT22;2582;48.770;9.190;2023-05-10T13:20:49;18.00;99.90
5128;DHT22;2582;48.770;9.190;2023-05-10T13:23:14;18.00;99.90
5128;DHT22;2582;48.770;9.190;2023-05-10T13:25:40;18.30;99.90
5128;DHT22;2582;48.770;9.190;2023-05-10T13:28:06;18.20;99.90
5128;DHT22;2582;48.770;9.190;2023-05-10T13:30:31;18.30;99.90
5128;DHT22;2582;48.770;9.190;2023-05-10T13:32:57;18.60;99.90
5128;DHT22;2582;48.770;9.190;2023-05-10T13:35:22;18.80;99.90
5128;DHT22;2582;48.770;9.190;2023-05-10T13:37:48;18.70;99.90
5128;DHT22;2582;48.770;9.190;2023-05-10T13:40:13;18.70;99.90
5128;DHT22;2582;48.770;9.190;2023-05-10T13:42:40;18.80;99.90
5128;DHT22;2582;48.770;9.190;2023-05-10T13:45:06;18.90;99.90
5128;DHT22;2582;48.770;9.190;2023-05-10T13:47:32;18.90;99.90
5128;DHT22;2582;48.770;9.190;2023-05-10T13:49:58;18.80;99.90
5128;DHT22;2582;48.770;9.190;2023-05-10T13:52:23;18.50;99.90
5128;DHT22;2582;48.770;9.190;2023-05-10T13:54:49;18.60;99.90
5128;DHT22;2582;48.770;9.190;2023-05-10T13:57:14;18.50;99.90
5128;DHT22;2582;48.770;9.190;2023-05-10T13:59:42;18.70;99.90
5128;DHT22;2582;48.770;9.190;2023-05-10T14:02:07;19.10;99.90
5128;DHT22;2582;48.770;9.190;2023-05-10T14:04:33;19.30;99.90
5128;DHT22;2582;48.770;9.190;2023-05-10T14:07:00;19.40;99.90
5128;DHT22;2582;48.770;9.190;2023-05-10T14:09:26;19.50;99.90
5128;DHT22;2582;48.770;9.190;2023-05-10T14:11:51;19.40;99.90
5128;DHT22;2582;48.770;9.190;2023-05-10T14:14:17;19.20;99.90
5128;DHT22;2582;48.770;9.190;2023-05-10T14:16:44;19.00;99.70
5128;DHT22;2582;48.770;9.190;2023-05-10T14:19:10;18.80;99.90
5128;DHT22;2582;48.770;9.190;2023-05-10T14:21:35;18.70;99.90
5128;DHT22;2582;48.770;9.190;2023-05-10T14:24:01;18.80;99.90
5128;DHT22;2582;48.770;9.190;2023-05-10T14:26:26;19.00;99.90
5128;DHT22;2582;48.770;9.190;2023-05-10T14:28:52;19.10;99.50
5128;DHT22;2582;48.770;9.190;2023-05-10T14:31:18;19.00;99.90
5128;DHT22;2582;48.770;9.190;2023-05-10T14:33:46;19.00;99.60
5128;DHT22;2582;48.770;9.190;2023-05-10T14:36:11;18.90;99.90
5128;DHT22;2582;48.770;9.190;2023-05-10T14:38:37;18.90;99.90
5128;DHT22;2582;48.770;9.190;2023-05-10T14:41:03;19.20;99.90
5128;DHT22;2582;48.770;9.190;2023-05-10T14:43:29;19.10;99.70
5128;DHT22;2582;48.770;9.190;2023-05-10T14:45:55;19.00;99.90
5128;DHT22;2582;48.770;9.190;2023-05-10T14:48:21;19.10;99.90
5128;DHT22;2582;48.770;9.190;2023-05-10T14:50:46;19.20;99.80
5128;DHT22;2582;48.770;9.190;2023-05-10T14:53:12;19.30;99.90
5128;DHT22;2582;48.770;9.190;2023-05-10T14:55:38;19.30;99.90
5128;DHT22;2582;48.770;9.190;2023-05-10T14:58:04;19.20;99.40
5128;DHT22;2582;48.770;9.190;2023-05-10T15:00:30;18.80;99.80
5128;DHT22;2582;48.770;9.190;2023-05-10T15:02:56;18.90;99.90
5128;DHT22;2582;48.770;9.190;2023-05-10T15:05:22;19.30;99.60
5128;DHT22;2582;48.770;9.190;2023-05-10T15:07:48;19.40;99.30
5128;DHT22;2582;48.770;9.190;2023-05-10T15:10:14;19.50;99.70
5128;DHT22;2582;48.770;9.190;2023-05-10T15:12:39;19.60;99.30
5128;DHT22;2582;48.770;9.190;2023-05-10T15:15:06;19.70;98.90
5128;DHT22;2582;48.770;9.190;2023-05-10T15:17:31;19.50;99.00
5128;DHT22;2582;48.770;9.190;2023-05-10T15:19:57;19.20;99.50
5128;DHT22;2582;48.770;9.190;2023-05-10T15:22:23;19.30;99.90
5128;DHT22;2582;48.770;9.190;2023-05-10T15:24:49;19.20;99.90
5128;DHT22;2582;48.770;9.190;2023-05-10T15:27:14;19.60;99.90
5128;DHT22;2582;48.770;9.190;2023-05-10T15:29:40;19.60;99.50
5128;DHT22;2582;48.770;9.190;2023-05-10T15:32:05;19.50;99.90
5128;DHT22;2582;48.770;9.190;2023-05-10T15:34:31;19.40;99.90
5128;DHT22;2582;48.770;9.190;2023-05-10T15:36:57;19.50;99.90
5128;DHT22;2582;48.770;9.190;2023-05-10T15:39:22;19.20;99.90
5128;DHT22;2582;48.770;9.190;2023-05-10T15:41:48;19.30;99.90
5128;DHT22;2582;48.770;9.190;2023-05-10T15:44:14;19.30;99.90
5128;DHT22;2582;48.770;9.190;2023-05-10T15:46:39;19.40;99.90
5128;DHT22;2582;48.770;9.190;2023-05-10T15:49:05;19.60;99.90
5128;DHT22;2582;48.770;9.190;2023-05-10T15:51:31;20.10;99.90
5128;DHT22;2582;48.770;9.190;2023-05-10T15:53:58;20.10;99.40
5128;DHT22;2582;48.770;9.190;2023-05-10T15:56:24;19.90;98.60
5128;DHT22;2582;48.770;9.190;2023-05-10T15:58:49;20.00;98.60
5128;DHT22;2582;48.770;9.190;2023-05-10T16:01:15;19.50;98.60
5128;DHT22;2582;48.770;9.190;2023-05-10T16:03:41;19.10;99.40
5128;DHT22;2582;48.770;9.190;2023-05-10T16:06:07;19.00;98.70
5128;DHT22;2582;48.770;9.190;2023-05-10T16:08:33;18.90;98.70
5128;DHT22;2582;48.770;9.190;2023-05-10T16:10:59;18.90;98.80
5128;DHT22;2582;48.770;9.190;2023-05-10T16:13:24;18.70;99.20
5128;DHT22;2582;48.770;9.190;2023-05-10T16:15:50;18.90;98.90
5128;DHT22;2582;48.770;9.190;2023-05-10T16:18:16;19.20;98.50
5128;DHT22;2582;48.770;9.190;2023-05-10T16:20:44;18.90;98.50
5128;DHT22;2582;48.770;9.190;2023-05-10T16:23:10;19.10;99.10
5128;DHT22;2582;48.770;9.190;2023-05-10T16:25:36;18.90;98.20
5128;DHT22;2582;48.770;9.190;2023-05-10T16:28:02;18.90;98.50
5128;DHT22;2582;48.770;9.190;2023-05-10T16:30:27;18.90;98.30
5128;DHT22;2582;48.770;9.190;2023-05-10T16:32:59;18.80;98.90
5128;DHT22;2582;48.770;9.190;2023-05-10T16:35:25;18.90;98.80
5128;DHT22;2582;48.770;9.190;2023-05-10T16:37:51;18.80;98.40
5128;DHT22;2582;48.770;9.190;2023-05-10T16:40:16;18.50;98.40